sensor_id;sensor_type;location;lat;lon;timestamp;P1;durP1;ratioP1;P2;durP2;ratioP2
15022;SDS011;19850;49.576;10.880;2022-12-29T00:02:42;2.37;;;1.90;;
15022;SDS011;19850;49.576;10.880;2022-12-29T00:06:46;2.30;;;1.80;;
15022;SDS011;19850;49.576;10.880;2022-12-29T00:10:51;2.40;;;1.30;;
15022;SDS011;19850;49.576;10.880;2022-12-29T00:14:54;2.07;;;1.87;;
15022;SDS011;19850;49.576;10.880;2022-12-29T00:19:14;2.63;;;1.67;;
15022;SDS011;19850;49.576;10.880;2022-12-29T00:23:32;3.17;;;1.80;;
15022;SDS011;19850;49.576;10.880;2022-12-29T00:27:52;1.60;;;1.47;;
15022;SDS011;19850;49.576;10.880;2022-12-29T00:32:12;1.77;;;1.67;;
15022;SDS011;19850;49.576;10.880;2022-12-29T00:36:33;2.60;;;2.00;;
15022;SDS011;19850;49.576;10.880;2022-12-29T00:40:41;1.87;;;1.70;;
15022;SDS011;19850;49.576;10.880;2022-12-29T00:45:01;2.03;;;1.83;;
15022;SDS011;19850;49.576;10.880;2022-12-29T00:49:04;2.00;;;1.77;;
15022;SDS011;19850;49.576;10.880;2022-12-29T00:53:24;2.07;;;1.77;;
15022;SDS011;19850;49.576;10.880;2022-12-29T00:57:28;3.97;;;1.90;;
15022;SDS011;19850;49.576;10.880;2022-12-29T01:01:31;2.73;;;1.80;;
15022;SDS011;19850;49.576;10.880;2022-12-29T01:05:35;1.90;;;1.53;;
15022;SDS011;19850;49.576;10.880;2022-12-29T01:09:38;1.60;;;1.50;;
15022;SDS011;19850;49.576;10.880;2022-12-29T01:13:59;2.00;;;1.80;;
15022;SDS011;19850;49.576;10.880;2022-12-29T01:18:02;1.70;;;1.57;;
15022;SDS011;19850;49.576;10.880;2022-12-29T01:22:06;3.00;;;1.77;;
15022;SDS011;19850;49.576;10.880;2022-12-29T01:26:09;2.97;;;1.73;;
15022;SDS011;19850;49.576;10.880;2022-12-29T01:30:14;1.90;;;1.50;;
15022;SDS011;19850;49.576;10.880;2022-12-29T01:34:18;2.53;;;1.50;;
15022;SDS011;19850;49.576;10.880;2022-12-29T01:38:21;2.17;;;1.50;;
15022;SDS011;19850;49.576;10.880;2022-12-29T01:42:24;2.03;;;1.77;;
15022;SDS011;19850;49.576;10.880;2022-12-29T01:46:30;3.73;;;1.80;;
15022;SDS011;19850;49.576;10.880;2022-12-29T01:50:35;2.23;;;1.50;;
15022;SDS011;19850;49.576;10.880;2022-12-29T01:54:40;1.60;;;1.50;;
15022;SDS011;19850;49.576;10.880;2022-12-29T01:58:45;1.90;;;1.67;;
15022;SDS011;19850;49.576;10.880;2022-12-29T02:02:51;2.40;;;1.30;;
15022;SDS011;19850;49.576;10.880;2022-12-29T02:06:55;1.73;;;1.47;;
15022;SDS011;19850;49.576;10.880;2022-12-29T02:11:00;1.90;;;1.43;;
15022;SDS011;19850;49.576;10.880;2022-12-29T02:15:03;2.13;;;1.53;;
15022;SDS011;19850;49.576;10.880;2022-12-29T02:19:23;2.47;;;1.50;;
15022;SDS011;19850;49.576;10.880;2022-12-29T02:33:00;3.43;;;1.40;;
15022;SDS011;19850;49.576;10.880;2022-12-29T02:37:11;1.53;;;1.43;;
15022;SDS011;19850;49.576;10.880;2022-12-29T02:41:19;1.20;;;1.10;;
15022;SDS011;19850;49.576;10.880;2022-12-29T02:45:26;2.63;;;1.50;;
15022;SDS011;19850;49.576;10.880;2022-12-29T02:49:36;1.50;;;1.40;;
15022;SDS011;19850;49.576;10.880;2022-12-29T02:53:41;3.47;;;1.50;;
15022;SDS011;19850;49.576;10.880;2022-12-29T02:58:15;1.70;;;1.30;;
15022;SDS011;19850;49.576;10.880;2022-12-29T03:02:26;1.83;;;1.33;;
15022;SDS011;19850;49.576;10.880;2022-12-29T03:06:36;2.63;;;1.37;;
15022;SDS011;19850;49.576;10.880;2022-12-29T03:10:55;1.90;;;1.50;;
15022;SDS011;19850;49.576;10.880;2022-12-29T03:15:03;1.93;;;1.50;;
15022;SDS011;19850;49.576;10.880;2022-12-29T03:19:26;1.50;;;1.40;;
15022;SDS011;19850;49.576;10.880;2022-12-29T03:23:33;2.87;;;1.60;;
15022;SDS011;19850;49.576;10.880;2022-12-29T03:27:38;3.27;;;1.30;;
15022;SDS011;19850;49.576;10.880;2022-12-29T03:31:43;1.60;;;1.30;;
15022;SDS011;19850;49.576;10.880;2022-12-29T03:35:47;1.47;;;1.37;;
15022;SDS011;19850;49.576;10.880;2022-12-29T03:39:53;2.20;;;1.30;;
15022;SDS011;19850;49.576;10.880;2022-12-29T03:43:56;2.30;;;1.30;;
15022;SDS011;19850;49.576;10.880;2022-12-29T03:47:59;1.30;;;1.13;;
15022;SDS011;19850;49.576;10.880;2022-12-29T03:52:02;2.10;;;1.30;;
15022;SDS011;19850;49.576;10.880;2022-12-29T03:56:07;1.67;;;1.40;;
15022;SDS011;19850;49.576;10.880;2022-12-29T04:00:10;1.80;;;1.47;;
15022;SDS011;19850;49.576;10.880;2022-12-29T04:04:14;2.30;;;1.40;;
15022;SDS011;19850;49.576;10.880;2022-12-29T04:08:17;2.80;;;1.40;;
15022;SDS011;19850;49.576;10.880;2022-12-29T04:12:22;1.70;;;1.27;;
15022;SDS011;19850;49.576;10.880;2022-12-29T04:16:24;2.77;;;1.50;;
15022;SDS011;19850;49.576;10.880;2022-12-29T04:20:27;3.20;;;1.30;;
15022;SDS011;19850;49.576;10.880;2022-12-29T04:24:47;2.43;;;1.87;;
15022;SDS011;19850;49.576;10.880;2022-12-29T04:28:51;3.17;;;2.70;;
15022;SDS011;19850;49.576;10.880;2022-12-29T04:32:54;5.17;;;3.27;;
15022;SDS011;19850;49.576;10.880;2022-12-29T04:36:57;5.20;;;3.40;;
15022;SDS011;19850;49.576;10.880;2022-12-29T04:41:00;5.93;;;3.30;;
15022;SDS011;19850;49.576;10.880;2022-12-29T04:45:06;7.07;;;4.17;;
15022;SDS011;19850;49.576;10.880;2022-12-29T04:49:10;3.70;;;2.80;;
15022;SDS011;19850;49.576;10.880;2022-12-29T04:53:13;3.87;;;2.20;;
15022;SDS011;19850;49.576;10.880;2022-12-29T04:57:15;2.90;;;2.00;;
15022;SDS011;19850;49.576;10.880;2022-12-29T05:01:20;1.77;;;1.67;;
15022;SDS011;19850;49.576;10.880;2022-12-29T05:05:23;2.23;;;1.73;;
15022;SDS011;19850;49.576;10.880;2022-12-29T05:09:25;2.07;;;1.60;;
15022;SDS011;19850;49.576;10.880;2022-12-29T05:13:28;1.63;;;1.53;;
15022;SDS011;19850;49.576;10.880;2022-12-29T05:17:32;1.70;;;1.60;;
15022;SDS011;19850;49.576;10.880;2022-12-29T05:21:35;1.70;;;1.60;;
15022;SDS011;19850;49.576;10.880;2022-12-29T05:25:38;2.43;;;1.43;;
15022;SDS011;19850;49.576;10.880;2022-12-29T05:29:41;2.50;;;1.50;;
15022;SDS011;19850;49.576;10.880;2022-12-29T05:33:46;2.60;;;1.40;;
15022;SDS011;19850;49.576;10.880;2022-12-29T05:37:48;1.63;;;1.17;;
15022;SDS011;19850;49.576;10.880;2022-12-29T05:41:51;3.33;;;1.70;;
15022;SDS011;19850;49.576;10.880;2022-12-29T05:45:54;3.17;;;1.80;;
15022;SDS011;19850;49.576;10.880;2022-12-29T05:49:59;1.63;;;1.50;;
15022;SDS011;19850;49.576;10.880;2022-12-29T05:54:01;1.70;;;1.30;;
15022;SDS011;19850;49.576;10.880;2022-12-29T05:58:04;1.57;;;1.30;;
15022;SDS011;19850;49.576;10.880;2022-12-29T06:02:08;1.73;;;1.57;;
15022;SDS011;19850;49.576;10.880;2022-12-29T06:06:13;2.83;;;1.43;;
15022;SDS011;19850;49.576;10.880;2022-12-29T06:10:15;4.40;;;1.50;;
15022;SDS011;19850;49.576;10.880;2022-12-29T06:14:18;1.90;;;1.40;;
15022;SDS011;19850;49.576;10.880;2022-12-29T06:18:21;1.70;;;1.50;;
15022;SDS011;19850;49.576;10.880;2022-12-29T06:22:26;4.43;;;1.70;;
15022;SDS011;19850;49.576;10.880;2022-12-29T06:26:29;1.67;;;1.27;;
15022;SDS011;19850;49.576;10.880;2022-12-29T06:30:32;2.73;;;1.70;;
15022;SDS011;19850;49.576;10.880;2022-12-29T06:34:36;1.50;;;1.40;;
15022;SDS011;19850;49.576;10.880;2022-12-29T06:38:40;2.23;;;1.70;;
15022;SDS011;19850;49.576;10.880;2022-12-29T06:42:43;2.67;;;1.30;;
15022;SDS011;19850;49.576;10.880;2022-12-29T06:46:45;2.70;;;1.67;;
15022;SDS011;19850;49.576;10.880;2022-12-29T06:50:48;2.53;;;1.40;;
15022;SDS011;19850;49.576;10.880;2022-12-29T06:54:53;1.40;;;1.30;;
15022;SDS011;19850;49.576;10.880;2022-12-29T06:58:56;2.23;;;1.47;;
15022;SDS011;19850;49.576;10.880;2022-12-29T07:03:01;1.50;;;1.30;;
15022;SDS011;19850;49.576;10.880;2022-12-29T07:07:04;1.97;;;1.77;;
15022;SDS011;19850;49.576;10.880;2022-12-29T07:11:08;1.13;;;1.10;;
15022;SDS011;19850;49.576;10.880;2022-12-29T07:15:11;2.60;;;1.60;;
15022;SDS011;19850;49.576;10.880;2022-12-29T07:19:14;2.00;;;1.53;;
15022;SDS011;19850;49.576;10.880;2022-12-29T07:23:17;3.43;;;2.50;;
15022;SDS011;19850;49.576;10.880;2022-12-29T07:27:21;2.50;;;1.67;;
15022;SDS011;19850;49.576;10.880;2022-12-29T07:31:24;4.33;;;3.47;;
15022;SDS011;19850;49.576;10.880;2022-12-29T07:35:26;2.90;;;1.83;;
15022;SDS011;19850;49.576;10.880;2022-12-29T07:39:29;1.53;;;1.43;;
15022;SDS011;19850;49.576;10.880;2022-12-29T07:43:34;4.57;;;2.77;;
15022;SDS011;19850;49.576;10.880;2022-12-29T07:47:37;2.93;;;2.13;;
15022;SDS011;19850;49.576;10.880;2022-12-29T07:51:40;2.70;;;1.60;;
15022;SDS011;19850;49.576;10.880;2022-12-29T07:55:43;1.73;;;1.53;;
15022;SDS011;19850;49.576;10.880;2022-12-29T07:59:47;1.50;;;1.40;;
15022;SDS011;19850;49.576;10.880;2022-12-29T08:03:50;2.50;;;1.70;;
15022;SDS011;19850;49.576;10.880;2022-12-29T08:07:57;2.57;;;1.70;;
15022;SDS011;19850;49.576;10.880;2022-12-29T08:12:00;2.07;;;1.67;;
15022;SDS011;19850;49.576;10.880;2022-12-29T08:16:05;1.90;;;1.80;;
15022;SDS011;19850;49.576;10.880;2022-12-29T08:20:09;2.40;;;1.70;;
15022;SDS011;19850;49.576;10.880;2022-12-29T08:24:12;1.90;;;1.70;;
15022;SDS011;19850;49.576;10.880;2022-12-29T08:28:15;2.03;;;1.60;;
15022;SDS011;19850;49.576;10.880;2022-12-29T08:32:19;1.97;;;1.83;;
15022;SDS011;19850;49.576;10.880;2022-12-29T08:36:23;1.73;;;1.60;;
15022;SDS011;19850;49.576;10.880;2022-12-29T08:40:26;4.03;;;1.70;;
15022;SDS011;19850;49.576;10.880;2022-12-29T08:44:29;1.87;;;1.60;;
15022;SDS011;19850;49.576;10.880;2022-12-29T08:48:33;2.93;;;1.50;;
15022;SDS011;19850;49.576;10.880;2022-12-29T08:52:36;2.60;;;1.43;;
15022;SDS011;19850;49.576;10.880;2022-12-29T08:56:39;1.50;;;1.37;;
15022;SDS011;19850;49.576;10.880;2022-12-29T09:00:41;3.03;;;1.47;;
15022;SDS011;19850;49.576;10.880;2022-12-29T09:04:46;2.30;;;1.87;;
15022;SDS011;19850;49.576;10.880;2022-12-29T09:08:48;1.70;;;1.60;;
15022;SDS011;19850;49.576;10.880;2022-12-29T09:12:51;3.63;;;1.70;;
15022;SDS011;19850;49.576;10.880;2022-12-29T09:16:54;3.40;;;1.83;;
15022;SDS011;19850;49.576;10.880;2022-12-29T09:21:16;3.50;;;1.90;;
15022;SDS011;19850;49.576;10.880;2022-12-29T09:25:19;3.03;;;1.80;;
15022;SDS011;19850;49.576;10.880;2022-12-29T09:29:25;4.30;;;1.60;;
15022;SDS011;19850;49.576;10.880;2022-12-29T09:33:28;1.73;;;1.60;;
15022;SDS011;19850;49.576;10.880;2022-12-29T09:37:32;2.53;;;1.73;;
15022;SDS011;19850;49.576;10.880;2022-12-29T09:41:36;3.27;;;1.90;;
15022;SDS011;19850;49.576;10.880;2022-12-29T09:45:42;2.13;;;1.60;;
15022;SDS011;19850;49.576;10.880;2022-12-29T09:49:47;3.70;;;1.60;;
15022;SDS011;19850;49.576;10.880;2022-12-29T09:53:53;1.73;;;1.50;;
15022;SDS011;19850;49.576;10.880;2022-12-29T09:57:59;2.43;;;1.77;;
15022;SDS011;19850;49.576;10.880;2022-12-29T10:02:04;3.37;;;1.50;;
15022;SDS011;19850;49.576;10.880;2022-12-29T10:06:17;1.93;;;1.33;;
15022;SDS011;19850;49.576;10.880;2022-12-29T10:10:28;2.80;;;1.70;;
15022;SDS011;19850;49.576;10.880;2022-12-29T10:14:39;1.97;;;1.77;;
15022;SDS011;19850;49.576;10.880;2022-12-29T10:19:02;1.90;;;1.70;;
15022;SDS011;19850;49.576;10.880;2022-12-29T10:23:18;2.07;;;1.70;;
15022;SDS011;19850;49.576;10.880;2022-12-29T10:27:32;1.83;;;1.57;;
15022;SDS011;19850;49.576;10.880;2022-12-29T10:31:37;2.23;;;1.40;;
15022;SDS011;19850;49.576;10.880;2022-12-29T10:35:42;2.83;;;1.87;;
15022;SDS011;19850;49.576;10.880;2022-12-29T10:39:45;2.83;;;1.53;;
15022;SDS011;19850;49.576;10.880;2022-12-29T10:43:52;2.80;;;1.57;;
15022;SDS011;19850;49.576;10.880;2022-12-29T10:47:57;2.33;;;1.50;;
15022;SDS011;19850;49.576;10.880;2022-12-29T10:52:02;1.57;;;1.47;;
15022;SDS011;19850;49.576;10.880;2022-12-29T10:56:12;3.07;;;1.77;;
15022;SDS011;19850;49.576;10.880;2022-12-29T11:00:20;3.03;;;1.60;;
15022;SDS011;19850;49.576;10.880;2022-12-29T11:04:29;2.23;;;1.60;;
15022;SDS011;19850;49.576;10.880;2022-12-29T11:08:41;2.33;;;1.67;;
15022;SDS011;19850;49.576;10.880;2022-12-29T11:12:56;3.47;;;1.77;;
15022;SDS011;19850;49.576;10.880;2022-12-29T11:17:03;2.00;;;1.77;;
15022;SDS011;19850;49.576;10.880;2022-12-29T11:21:07;2.53;;;1.87;;
15022;SDS011;19850;49.576;10.880;2022-12-29T11:25:28;4.13;;;1.93;;
15022;SDS011;19850;49.576;10.880;2022-12-29T11:29:36;2.57;;;1.53;;
15022;SDS011;19850;49.576;10.880;2022-12-29T11:33:41;2.63;;;1.67;;
15022;SDS011;19850;49.576;10.880;2022-12-29T11:37:44;1.87;;;1.40;;
15022;SDS011;19850;49.576;10.880;2022-12-29T11:41:50;2.40;;;1.70;;
15022;SDS011;19850;49.576;10.880;2022-12-29T11:45:53;1.67;;;1.30;;
15022;SDS011;19850;49.576;10.880;2022-12-29T11:49:59;3.27;;;1.60;;
15022;SDS011;19850;49.576;10.880;2022-12-29T11:54:03;1.57;;;1.43;;
15022;SDS011;19850;49.576;10.880;2022-12-29T11:58:11;3.07;;;1.80;;
15022;SDS011;19850;49.576;10.880;2022-12-29T12:02:26;2.67;;;1.67;;
15022;SDS011;19850;49.576;10.880;2022-12-29T12:06:45;2.30;;;1.70;;
15022;SDS011;19850;49.576;10.880;2022-12-29T12:10:52;2.37;;;1.60;;
15022;SDS011;19850;49.576;10.880;2022-12-29T12:14:58;4.70;;;1.67;;
15022;SDS011;19850;49.576;10.880;2022-12-29T12:19:03;7.67;;;6.87;;
15022;SDS011;19850;49.576;10.880;2022-12-29T12:23:14;4.67;;;3.37;;
15022;SDS011;19850;49.576;10.880;2022-12-29T12:27:23;2.70;;;2.00;;
15022;SDS011;19850;49.576;10.880;2022-12-29T12:31:34;3.27;;;1.70;;
15022;SDS011;19850;49.576;10.880;2022-12-29T12:35:47;3.50;;;2.03;;
15022;SDS011;19850;49.576;10.880;2022-12-29T12:40:02;1.57;;;1.30;;
15022;SDS011;19850;49.576;10.880;2022-12-29T12:44:24;1.63;;;1.27;;
15022;SDS011;19850;49.576;10.880;2022-12-29T12:48:35;1.53;;;1.20;;
15022;SDS011;19850;49.576;10.880;2022-12-29T12:52:51;2.30;;;1.40;;
15022;SDS011;19850;49.576;10.880;2022-12-29T12:57:16;1.30;;;1.20;;
15022;SDS011;19850;49.576;10.880;2022-12-29T13:01:25;1.30;;;1.10;;
15022;SDS011;19850;49.576;10.880;2022-12-29T13:05:40;1.10;;;1.00;;
15022;SDS011;19850;49.576;10.880;2022-12-29T13:10:02;2.30;;;1.27;;
15022;SDS011;19850;49.576;10.880;2022-12-29T13:14:27;1.90;;;1.50;;
15022;SDS011;19850;49.576;10.880;2022-12-29T13:18:35;2.40;;;1.27;;
15022;SDS011;19850;49.576;10.880;2022-12-29T13:22:44;1.60;;;1.23;;
15022;SDS011;19850;49.576;10.880;2022-12-29T13:26:53;2.13;;;1.47;;
15022;SDS011;19850;49.576;10.880;2022-12-29T13:31:02;1.47;;;1.30;;
15022;SDS011;19850;49.576;10.880;2022-12-29T13:35:14;1.87;;;1.70;;
15022;SDS011;19850;49.576;10.880;2022-12-29T13:39:27;2.13;;;1.30;;
15022;SDS011;19850;49.576;10.880;2022-12-29T13:43:34;2.67;;;1.50;;
15022;SDS011;19850;49.576;10.880;2022-12-29T13:47:40;1.60;;;1.50;;
15022;SDS011;19850;49.576;10.880;2022-12-29T13:51:47;2.60;;;2.00;;
15022;SDS011;19850;49.576;10.880;2022-12-29T13:55:53;2.70;;;2.10;;
15022;SDS011;19850;49.576;10.880;2022-12-29T13:59:59;2.73;;;2.10;;
15022;SDS011;19850;49.576;10.880;2022-12-29T14:04:09;1.70;;;1.60;;
15022;SDS011;19850;49.576;10.880;2022-12-29T14:08:15;2.77;;;1.60;;
15022;SDS011;19850;49.576;10.880;2022-12-29T14:12:20;2.20;;;1.80;;
15022;SDS011;19850;49.576;10.880;2022-12-29T14:16:26;2.93;;;1.93;;
15022;SDS011;19850;49.576;10.880;2022-12-29T14:20:32;3.53;;;2.73;;
15022;SDS011;19850;49.576;10.880;2022-12-29T14:24:41;5.37;;;2.27;;
15022;SDS011;19850;49.576;10.880;2022-12-29T14:28:45;3.37;;;1.93;;
15022;SDS011;19850;49.576;10.880;2022-12-29T14:33:00;3.40;;;2.57;;
15022;SDS011;19850;49.576;10.880;2022-12-29T14:37:17;3.30;;;3.00;;
15022;SDS011;19850;49.576;10.880;2022-12-29T14:41:27;6.73;;;4.47;;
15022;SDS011;19850;49.576;10.880;2022-12-29T14:45:32;6.53;;;5.83;;
15022;SDS011;19850;49.576;10.880;2022-12-29T14:49:39;6.87;;;5.50;;
15022;SDS011;19850;49.576;10.880;2022-12-29T14:53:46;7.27;;;5.40;;
15022;SDS011;19850;49.576;10.880;2022-12-29T14:57:50;9.67;;;7.00;;
15022;SDS011;19850;49.576;10.880;2022-12-29T15:01:54;7.50;;;6.30;;
15022;SDS011;19850;49.576;10.880;2022-12-29T15:05:58;6.73;;;5.13;;
15022;SDS011;19850;49.576;10.880;2022-12-29T15:10:13;6.63;;;3.97;;
15022;SDS011;19850;49.576;10.880;2022-12-29T15:14:26;7.00;;;4.87;;
15022;SDS011;19850;49.576;10.880;2022-12-29T15:18:32;6.63;;;5.57;;
15022;SDS011;19850;49.576;10.880;2022-12-29T15:22:35;7.57;;;4.97;;
15022;SDS011;19850;49.576;10.880;2022-12-29T15:26:40;10.20;;;6.90;;
15022;SDS011;19850;49.576;10.880;2022-12-29T15:30:51;8.90;;;6.60;;
15022;SDS011;19850;49.576;10.880;2022-12-29T15:34:55;8.87;;;7.97;;
15022;SDS011;19850;49.576;10.880;2022-12-29T15:39:01;12.57;;;10.03;;
15022;SDS011;19850;49.576;10.880;2022-12-29T15:43:26;14.97;;;12.93;;
15022;SDS011;19850;49.576;10.880;2022-12-29T15:47:42;18.70;;;12.93;;
15022;SDS011;19850;49.576;10.880;2022-12-29T15:51:47;11.57;;;9.73;;
15022;SDS011;19850;49.576;10.880;2022-12-29T15:55:50;12.57;;;10.10;;
15022;SDS011;19850;49.576;10.880;2022-12-29T16:00:04;11.57;;;7.73;;
15022;SDS011;19850;49.576;10.880;2022-12-29T16:04:26;7.73;;;5.80;;
15022;SDS011;19850;49.576;10.880;2022-12-29T16:08:31;4.73;;;4.20;;
15022;SDS011;19850;49.576;10.880;2022-12-29T16:12:38;5.17;;;4.33;;
15022;SDS011;19850;49.576;10.880;2022-12-29T16:16:43;6.93;;;4.63;;
15022;SDS011;19850;49.576;10.880;2022-12-29T16:20:47;2.90;;;2.70;;
15022;SDS011;19850;49.576;10.880;2022-12-29T16:24:50;3.80;;;3.30;;
15022;SDS011;19850;49.576;10.880;2022-12-29T16:28:54;3.60;;;3.30;;
15022;SDS011;19850;49.576;10.880;2022-12-29T16:33:00;3.50;;;3.20;;
15022;SDS011;19850;49.576;10.880;2022-12-29T16:41:30;2.70;;;2.50;;
15022;SDS011;19850;49.576;10.880;2022-12-29T16:46:01;6.33;;;4.60;;
15022;SDS011;19850;49.576;10.880;2022-12-29T16:50:22;3.23;;;2.90;;
15022;SDS011;19850;49.576;10.880;2022-12-29T16:54:30;2.40;;;2.20;;
15022;SDS011;19850;49.576;10.880;2022-12-29T16:58:35;3.53;;;2.20;;
15022;SDS011;19850;49.576;10.880;2022-12-29T17:02:38;2.87;;;2.00;;
15022;SDS011;19850;49.576;10.880;2022-12-29T17:06:48;4.57;;;1.90;;
15022;SDS011;19850;49.576;10.880;2022-12-29T17:10:51;2.40;;;1.70;;
15022;SDS011;19850;49.576;10.880;2022-12-29T17:15:14;1.80;;;1.40;;
15022;SDS011;19850;49.576;10.880;2022-12-29T17:19:28;1.60;;;1.50;;
15022;SDS011;19850;49.576;10.880;2022-12-29T17:23:33;2.17;;;1.47;;
15022;SDS011;19850;49.576;10.880;2022-12-29T17:27:37;2.63;;;1.87;;
15022;SDS011;19850;49.576;10.880;2022-12-29T17:31:43;1.60;;;1.03;;
15022;SDS011;19850;49.576;10.880;2022-12-29T17:35:46;1.80;;;1.53;;
15022;SDS011;19850;49.576;10.880;2022-12-29T17:39:57;2.10;;;1.53;;
15022;SDS011;19850;49.576;10.880;2022-12-29T17:44:00;2.20;;;1.47;;
15022;SDS011;19850;49.576;10.880;2022-12-29T17:48:04;2.17;;;1.30;;
15022;SDS011;19850;49.576;10.880;2022-12-29T17:52:10;1.23;;;1.13;;
15022;SDS011;19850;49.576;10.880;2022-12-29T17:56:15;1.63;;;1.40;;
15022;SDS011;19850;49.576;10.880;2022-12-29T18:00:18;1.60;;;1.50;;
15022;SDS011;19850;49.576;10.880;2022-12-29T18:04:22;3.60;;;3.30;;
15022;SDS011;19850;49.576;10.880;2022-12-29T18:08:25;4.30;;;3.90;;
15022;SDS011;19850;49.576;10.880;2022-12-29T18:12:32;4.73;;;4.33;;
15022;SDS011;19850;49.576;10.880;2022-12-29T18:16:39;5.40;;;4.93;;
15022;SDS011;19850;49.576;10.880;2022-12-29T18:20:42;9.33;;;8.43;;
15022;SDS011;19850;49.576;10.880;2022-12-29T18:24:45;6.60;;;6.00;;
15022;SDS011;19850;49.576;10.880;2022-12-29T18:28:50;5.77;;;4.60;;
15022;SDS011;19850;49.576;10.880;2022-12-29T18:32:54;5.30;;;4.57;;
15022;SDS011;19850;49.576;10.880;2022-12-29T18:36:56;5.13;;;3.90;;
15022;SDS011;19850;49.576;10.880;2022-12-29T18:41:00;9.00;;;6.50;;
15022;SDS011;19850;49.576;10.880;2022-12-29T18:45:09;6.53;;;5.03;;
15022;SDS011;19850;49.576;10.880;2022-12-29T18:49:16;3.80;;;3.40;;
15022;SDS011;19850;49.576;10.880;2022-12-29T18:53:19;5.37;;;4.03;;
15022;SDS011;19850;49.576;10.880;2022-12-29T18:57:23;4.90;;;3.80;;
15022;SDS011;19850;49.576;10.880;2022-12-29T19:01:27;4.00;;;3.60;;
15022;SDS011;19850;49.576;10.880;2022-12-29T19:05:34;4.40;;;3.40;;
15022;SDS011;19850;49.576;10.880;2022-12-29T19:09:38;3.60;;;3.30;;
15022;SDS011;19850;49.576;10.880;2022-12-29T19:13:41;4.30;;;3.87;;
15022;SDS011;19850;49.576;10.880;2022-12-29T19:17:45;4.97;;;4.47;;
15022;SDS011;19850;49.576;10.880;2022-12-29T19:22:08;5.60;;;4.03;;
15022;SDS011;19850;49.576;10.880;2022-12-29T19:26:27;5.17;;;3.40;;
15022;SDS011;19850;49.576;10.880;2022-12-29T19:30:31;3.70;;;3.40;;
15022;SDS011;19850;49.576;10.880;2022-12-29T19:34:36;4.37;;;3.93;;
15022;SDS011;19850;49.576;10.880;2022-12-29T19:38:39;4.40;;;4.00;;
15022;SDS011;19850;49.576;10.880;2022-12-29T19:42:42;6.20;;;5.40;;
15022;SDS011;19850;49.576;10.880;2022-12-29T19:46:44;5.60;;;5.07;;
15022;SDS011;19850;49.576;10.880;2022-12-29T19:50:49;4.77;;;4.00;;
15022;SDS011;19850;49.576;10.880;2022-12-29T19:54:52;3.53;;;3.00;;
15022;SDS011;19850;49.576;10.880;2022-12-29T19:58:54;3.23;;;2.80;;
15022;SDS011;19850;49.576;10.880;2022-12-29T20:02:58;5.23;;;2.03;;
15022;SDS011;19850;49.576;10.880;2022-12-29T20:07:03;1.80;;;1.70;;
15022;SDS011;19850;49.576;10.880;2022-12-29T20:11:06;3.83;;;2.30;;
15022;SDS011;19850;49.576;10.880;2022-12-29T20:15:10;5.07;;;3.47;;
15022;SDS011;19850;49.576;10.880;2022-12-29T20:19:13;5.80;;;3.80;;
15022;SDS011;19850;49.576;10.880;2022-12-29T20:23:18;5.20;;;4.00;;
15022;SDS011;19850;49.576;10.880;2022-12-29T20:27:21;4.90;;;3.43;;
15022;SDS011;19850;49.576;10.880;2022-12-29T20:31:24;4.83;;;3.27;;
15022;SDS011;19850;49.576;10.880;2022-12-29T20:35:29;5.07;;;3.10;;
15022;SDS011;19850;49.576;10.880;2022-12-29T20:39:33;4.00;;;3.00;;
15022;SDS011;19850;49.576;10.880;2022-12-29T20:43:37;6.00;;;4.20;;
15022;SDS011;19850;49.576;10.880;2022-12-29T20:47:39;10.33;;;5.43;;
15022;SDS011;19850;49.576;10.880;2022-12-29T20:51:42;12.47;;;6.87;;
15022;SDS011;19850;49.576;10.880;2022-12-29T20:56:08;10.73;;;5.90;;
15022;SDS011;19850;49.576;10.880;2022-12-29T21:00:12;10.83;;;5.30;;
15022;SDS011;19850;49.576;10.880;2022-12-29T21:04:22;2.90;;;2.60;;
15022;SDS011;19850;49.576;10.880;2022-12-29T21:08:26;4.03;;;2.37;;
15022;SDS011;19850;49.576;10.880;2022-12-29T21:12:31;3.13;;;2.00;;
15022;SDS011;19850;49.576;10.880;2022-12-29T21:16:34;3.53;;;1.90;;
15022;SDS011;19850;49.576;10.880;2022-12-29T21:20:37;1.70;;;1.60;;
15022;SDS011;19850;49.576;10.880;2022-12-29T21:24:40;5.73;;;3.10;;
15022;SDS011;19850;49.576;10.880;2022-12-29T21:28:45;5.10;;;2.70;;
15022;SDS011;19850;49.576;10.880;2022-12-29T21:32:48;7.17;;;3.23;;
15022;SDS011;19850;49.576;10.880;2022-12-29T21:36:51;6.73;;;3.90;;
15022;SDS011;19850;49.576;10.880;2022-12-29T21:40:54;3.60;;;2.50;;
15022;SDS011;19850;49.576;10.880;2022-12-29T21:44:58;3.87;;;2.60;;
15022;SDS011;19850;49.576;10.880;2022-12-29T21:49:21;4.10;;;2.27;;
15022;SDS011;19850;49.576;10.880;2022-12-29T21:53:26;3.90;;;2.40;;
15022;SDS011;19850;49.576;10.880;2022-12-29T21:57:38;2.80;;;2.27;;
15022;SDS011;19850;49.576;10.880;2022-12-29T22:02:00;3.70;;;1.87;;
15022;SDS011;19850;49.576;10.880;2022-12-29T22:06:23;3.57;;;1.83;;
15022;SDS011;19850;49.576;10.880;2022-12-29T22:10:44;3.00;;;1.80;;
15022;SDS011;19850;49.576;10.880;2022-12-29T22:15:05;2.80;;;1.80;;
15022;SDS011;19850;49.576;10.880;2022-12-29T22:19:10;4.63;;;2.00;;
15022;SDS011;19850;49.576;10.880;2022-12-29T22:23:13;3.93;;;2.30;;
15022;SDS011;19850;49.576;10.880;2022-12-29T22:27:16;3.23;;;2.00;;
15022;SDS011;19850;49.576;10.880;2022-12-29T22:31:20;4.27;;;2.07;;
15022;SDS011;19850;49.576;10.880;2022-12-29T22:35:29;2.87;;;1.73;;
15022;SDS011;19850;49.576;10.880;2022-12-29T22:39:32;2.93;;;1.60;;
15022;SDS011;19850;49.576;10.880;2022-12-29T22:43:35;3.60;;;1.70;;
15022;SDS011;19850;49.576;10.880;2022-12-29T22:47:38;2.50;;;1.70;;
15022;SDS011;19850;49.576;10.880;2022-12-29T22:51:42;2.43;;;1.50;;
15022;SDS011;19850;49.576;10.880;2022-12-29T22:55:45;4.10;;;1.80;;
15022;SDS011;19850;49.576;10.880;2022-12-29T22:59:48;2.10;;;1.30;;
15022;SDS011;19850;49.576;10.880;2022-12-29T23:03:51;2.97;;;1.40;;
15022;SDS011;19850;49.576;10.880;2022-12-29T23:08:15;1.50;;;1.07;;
15022;SDS011;19850;49.576;10.880;2022-12-29T23:12:18;3.63;;;1.93;;
15022;SDS011;19850;49.576;10.880;2022-12-29T23:16:21;1.63;;;1.30;;
15022;SDS011;19850;49.576;10.880;2022-12-29T23:20:24;2.97;;;1.20;;
15022;SDS011;19850;49.576;10.880;2022-12-29T23:24:28;3.17;;;1.30;;
15022;SDS011;19850;49.576;10.880;2022-12-29T23:28:31;3.40;;;1.23;;
15022;SDS011;19850;49.576;10.880;2022-12-29T23:32:33;1.90;;;1.10;;
15022;SDS011;19850;49.576;10.880;2022-12-29T23:36:36;5.00;;;1.37;;
15022;SDS011;19850;49.576;10.880;2022-12-29T23:40:41;2.37;;;1.00;;
15022;SDS011;19850;49.576;10.880;2022-12-29T23:44:44;2.00;;;1.00;;
15022;SDS011;19850;49.576;10.880;2022-12-29T23:48:46;4.27;;;1.17;;
15022;SDS011;19850;49.576;10.880;2022-12-29T23:52:49;2.60;;;1.00;;
15022;SDS011;19850;49.576;10.880;2022-12-29T23:56:54;2.93;;;1.20;;
